createdAt,value
2023-05-22T00:00:24.733Z,98631.53
2023-05-22T00:01:28.124Z,98633.78
2023-05-22T00:02:32.970Z,98635.69
2023-05-22T00:03:37.145Z,98629.78
2023-05-22T00:04:40.080Z,98632.53
2023-05-22T00:05:41.926Z,98633.50
2023-05-22T00:06:44.948Z,98633.50
2023-05-22T00:07:46.790Z,98634.63
2023-05-22T00:08:49.603Z,98639.88
2023-05-22T00:09:51.483Z,98623.31
2023-05-22T00:10:54.462Z,98632.13
2023-05-22T00:11:56.282Z,98628.69
2023-05-22T00:12:59.080Z,98629.66
2023-05-22T00:14:00.900Z,98620.97
2023-05-22T00:15:04.019Z,98628.84
2023-05-22T00:16:06.644Z,98621.81
2023-05-22T00:17:15.027Z,98623.44
2023-05-22T00:18:17.229Z,98623.31
2023-05-22T00:19:23.198Z,98625.13
2023-05-22T00:20:26.163Z,98628.56
2023-05-22T00:21:29.070Z,98624.16
2023-05-22T00:22:31.703Z,98626.63
2023-05-22T00:23:34.655Z,98621.22
2023-05-22T00:24:36.416Z,98620.28
2023-05-22T00:25:39.439Z,98620.28
2023-05-22T00:26:41.211Z,98622.75
2023-05-22T00:27:44.046Z,98621.09
2023-05-22T00:28:45.994Z,98616.69
2023-05-22T00:29:48.780Z,98614.88
2023-05-22T00:30:50.645Z,98615.88
2023-05-22T00:31:53.543Z,98614.06
2023-05-22T00:32:57.048Z,98616.81
2023-05-22T00:34:00.203Z,98612.41
2023-05-22T00:35:02.327Z,98614.34
2023-05-22T00:36:05.931Z,98612.69
2023-05-22T00:37:07.814Z,98611.06
2023-05-22T00:38:10.682Z,98613.66
2023-05-22T00:39:12.607Z,98612.03
2023-05-22T00:40:16.648Z,98613.13
2023-05-22T00:41:18.756Z,98608.88
2023-05-22T00:42:22.581Z,98610.66
2023-05-22T00:43:24.707Z,98609.97
2023-05-22T00:44:27.807Z,98610.94
2023-05-22T00:45:29.750Z,98609.44
2023-05-22T00:46:34.204Z,98607.91
2023-05-22T00:47:57.149Z,98606.53
2023-05-22T00:49:17.540Z,98603.41
2023-05-22T00:50:39.291Z,98602.72
2023-05-22T00:52:01.649Z,98601.38
2023-05-22T00:53:22.585Z,98602.47
2023-05-22T00:54:44.273Z,98602.88
2023-05-22T00:56:07.094Z,98600.69
2023-05-22T00:57:29.039Z,98603.72
2023-05-22T00:58:49.825Z,98600.19
2023-05-22T01:00:13.173Z,98601.41
2023-05-22T01:01:37.691Z,98602.50
2023-05-22T01:03:01.187Z,98598.38
2023-05-22T01:04:22.705Z,98594.22
2023-05-22T01:05:43.422Z,98598.94
2023-05-22T01:07:06.094Z,98597.41
2023-05-22T01:08:27.643Z,98593.28
2023-05-22T01:09:48.202Z,98592.88
2023-05-22T01:11:14.494Z,98593.00
2023-05-22T01:12:44.076Z,98591.38
2023-05-22T01:14:11.944Z,98589.88
2023-05-22T01:15:41.014Z,98589.88
2023-05-22T01:17:08.793Z,98584.63
2023-05-22T01:18:36.670Z,98587.09
2023-05-22T01:20:07.394Z,98586.28
2023-05-22T01:21:34.544Z,98584.34
2023-05-22T01:23:24.507Z,98578.16
2023-05-22T01:25:18.020Z,98582.44
2023-05-22T01:26:54.021Z,98580.78
2023-05-22T01:28:04.091Z,98577.03
2023-05-22T01:29:14.800Z,98582.00
2023-05-22T01:30:46.293Z,98583.50
2023-05-22T01:31:50.527Z,98578.00
2023-05-22T01:32:56.622Z,98579.66
2023-05-22T01:34:01.236Z,98582.94
2023-05-22T01:35:09.081Z,98578.41
2023-05-22T01:36:13.219Z,98578.25
2023-05-22T01:37:16.454Z,98579.81
2023-05-22T01:38:30.705Z,98583.94
2023-05-22T01:39:36.343Z,98573.31
2023-05-22T01:40:38.466Z,98571.41
2023-05-22T01:41:41.755Z,98584.34
2023-05-22T01:42:45.804Z,98572.75
2023-05-22T01:43:48.745Z,98577.97
2023-05-22T01:45:11.085Z,98570.28
2023-05-22T01:46:33.675Z,98575.50
2023-05-22T01:47:55.423Z,98578.13
2023-05-22T01:49:17.470Z,98579.09
2023-05-22T01:50:39.498Z,98578.13
2023-05-22T01:52:06.038Z,98579.09
2023-05-22T01:53:32.035Z,98581.03
2023-05-22T01:54:58.845Z,98582.13
2023-05-22T01:56:30.569Z,98578.25
2023-05-22T01:57:59.233Z,98578.00
2023-05-22T01:59:25.469Z,98571.41
2023-05-22T02:00:47.291Z,98580.47
2023-05-22T02:02:09.451Z,98579.09
2023-05-22T02:03:32.566Z,98581.31
2023-05-22T02:04:57.571Z,98582.69
2023-05-22T02:06:19.549Z,98585.06
2023-05-22T02:07:42.964Z,98577.75
2023-05-22T02:09:05.107Z,98582.56
2023-05-22T02:10:26.083Z,98584.78
2023-05-22T02:11:48.241Z,98582.72
2023-05-22T02:13:08.828Z,98586.81
2023-05-22T02:14:30.635Z,98588.91
2023-05-22T02:15:51.517Z,98582.16
2023-05-22T02:17:13.002Z,98576.25
2023-05-22T02:18:34.967Z,98578.16
2023-05-22T02:21:48.088Z,98573.47
2023-05-22T02:23:08.873Z,98585.56
2023-05-22T02:24:30.899Z,98575.94
2023-05-22T02:25:52.507Z,98574.84
2023-05-22T02:27:14.346Z,98573.06
2023-05-22T02:28:34.714Z,98575.53
2023-05-22T02:29:56.424Z,98576.50
2023-05-22T02:31:18.317Z,98577.47
2023-05-22T02:32:40.527Z,98580.75
2023-05-22T02:34:05.344Z,98581.06
2023-05-22T02:35:27.382Z,98577.72
2023-05-22T02:36:48.187Z,98573.03
2023-05-22T02:38:09.738Z,98582.25
2023-05-22T02:39:31.176Z,98582.66
2023-05-22T02:40:51.724Z,98582.22
2023-05-22T02:42:13.050Z,98586.06
2023-05-22T02:43:35.043Z,98579.72
2023-05-22T02:44:56.762Z,98577.66
2023-05-22T02:46:18.544Z,98574.88
2023-05-22T02:47:38.985Z,98580.38
2023-05-22T02:49:00.724Z,98589.16
2023-05-22T02:50:22.548Z,98578.03
2023-05-22T02:51:47.555Z,98582.56
2023-05-22T02:53:08.392Z,98573.09
2023-05-22T02:54:29.748Z,98579.22
2023-05-22T02:55:53.162Z,98578.56
2023-05-22T02:57:13.578Z,98578.69
2023-05-22T02:58:35.038Z,98572.75
2023-05-22T02:59:57.548Z,98579.91
2023-05-22T03:01:19.164Z,98581.41
2023-05-22T03:02:39.326Z,98578.81
2023-05-22T03:03:43.799Z,98577.72
2023-05-22T03:04:46.444Z,98582.00
2023-05-22T03:05:53.673Z,98584.47
2023-05-22T03:06:55.813Z,98570.47
2023-05-22T03:07:58.969Z,98566.91
2023-05-22T03:09:01.130Z,98576.53
2023-05-22T03:10:04.192Z,98572.94
2023-05-22T03:11:06.031Z,98575.41
2023-05-22T03:12:09.834Z,98572.66
2023-05-22T03:13:11.778Z,98569.13
2023-05-22T03:14:14.653Z,98575.03
2023-05-22T03:15:16.555Z,98572.97
2023-05-22T03:16:20.264Z,98571.03
2023-05-22T03:17:23.157Z,98575.88
2023-05-22T03:18:27.621Z,98580.84
2023-05-22T03:19:31.201Z,98569.28
2023-05-22T03:20:34.051Z,98563.91
2023-05-22T03:21:38.162Z,98565.31
2023-05-22T03:22:41.262Z,98572.19
2023-05-22T03:23:44.800Z,98565.88
2023-05-22T03:24:47.879Z,98575.09
2023-05-22T03:25:49.836Z,98565.34
2023-05-22T03:26:52.738Z,98563.28
2023-05-22T03:28:02.995Z,98571.66
2023-05-22T03:29:09.164Z,98571.41
2023-05-22T03:30:16.021Z,98570.28
2023-05-22T03:31:27.082Z,98565.78
2023-05-22T03:32:40.950Z,98574.19
2023-05-22T03:33:42.845Z,98570.31
2023-05-22T03:34:46.063Z,98570.03
2023-05-22T03:35:48.286Z,98571.53
2023-05-22T03:36:52.436Z,98567.72
2023-05-22T03:37:54.274Z,98571.84
2023-05-22T03:38:57.472Z,98561.09
2023-05-22T03:39:59.925Z,98565.91
2023-05-22T03:41:06.069Z,98560.44
2023-05-22T03:42:07.932Z,98560.13
2023-05-22T03:43:10.973Z,98572.78
2023-05-22T03:44:13.833Z,98568.94
2023-05-22T03:45:16.964Z,98561.50
2023-05-22T03:46:19.088Z,98569.09
2023-05-22T03:47:22.039Z,98575.69
2023-05-22T03:48:23.901Z,98563.31
2023-05-22T03:49:27.495Z,98567.16
2023-05-22T03:50:29.290Z,98567.72
2023-05-22T03:51:32.533Z,98571.66
2023-05-22T03:52:36.687Z,98577.31
2023-05-22T03:53:40.288Z,98565.75
2023-05-22T03:54:42.099Z,98574.00
2023-05-22T03:55:45.023Z,98573.63
2023-05-22T03:56:46.920Z,98570.56
2023-05-22T03:57:49.818Z,98571.91
2023-05-22T03:58:52.653Z,98569.59
2023-05-22T03:59:55.471Z,98574.91
2023-05-22T04:00:58.657Z,98573.78
2023-05-22T04:02:02.294Z,98570.56
2023-05-22T04:03:04.952Z,98570.75
2023-05-22T04:04:09.517Z,98574.69
2023-05-22T04:05:11.927Z,98573.06
2023-05-22T04:06:14.751Z,98567.16
2023-05-22T04:07:18.354Z,98577.16
2023-05-22T04:08:22.679Z,98573.72
2023-05-22T04:09:26.663Z,98569.59
2023-05-22T04:10:48.743Z,98570.38
2023-05-22T04:12:10.036Z,98576.28
2023-05-22T04:13:33.121Z,98571.00
2023-05-22T04:14:54.045Z,98573.38
2023-05-22T04:16:17.526Z,98565.44
2023-05-22T04:17:40.496Z,98564.41
2023-05-22T04:19:03.296Z,98563.63
2023-05-22T04:20:25.101Z,98568.75
2023-05-22T04:21:46.531Z,98573.91
2023-05-22T04:23:07.901Z,98566.53
2023-05-22T04:24:30.573Z,98572.09
2023-05-22T04:25:55.371Z,98578.38
2023-05-22T04:27:16.127Z,98568.03
2023-05-22T04:28:37.937Z,98573.63
2023-05-22T04:30:02.332Z,98572.13
2023-05-22T04:31:23.500Z,98571.44
2023-05-22T04:32:44.231Z,98570.13
2023-05-22T04:33:48.349Z,98572.22
2023-05-22T04:34:50.932Z,98570.38
2023-05-22T04:35:54.439Z,98573.81
2023-05-22T04:36:56.383Z,98572.13
2023-05-22T04:38:02.042Z,98568.66
2023-05-22T04:39:04.208Z,98570.59
2023-05-22T04:40:10.107Z,98566.66
2023-05-22T04:41:13.480Z,98562.00
2023-05-22T04:42:17.359Z,98568.25
2023-05-22T04:43:19.178Z,98567.91
2023-05-22T04:44:22.976Z,98567.00
2023-05-22T04:45:26.660Z,98560.03
2023-05-22T04:46:29.631Z,98567.56
2023-05-22T04:47:32.125Z,98563.72
2023-05-22T04:48:40.282Z,98562.63
2023-05-22T04:49:42.525Z,98573.31
2023-05-22T04:50:46.363Z,98562.06
2023-05-22T04:51:48.537Z,98561.81
2023-05-22T04:52:51.382Z,98564.56
2023-05-22T04:53:55.665Z,98566.31
2023-05-22T04:55:00.469Z,98567.25
2023-05-22T04:56:06.033Z,98564.28
2023-05-22T04:57:09.291Z,98559.34
2023-05-22T04:58:11.165Z,98558.03
2023-05-22T04:59:16.156Z,98565.66
2023-05-22T05:00:19.327Z,98562.72
2023-05-22T05:01:23.731Z,98559.16
2023-05-22T05:02:26.675Z,98558.69
2023-05-22T05:03:28.817Z,98566.28
2023-05-22T05:04:31.811Z,98563.56
2023-05-22T05:05:33.708Z,98568.78
2023-05-22T05:06:57.513Z,98563.28
2023-05-22T05:08:17.894Z,98569.28
2023-05-22T05:09:39.292Z,98566.75
2023-05-22T05:11:00.811Z,98561.56
2023-05-22T05:12:23.725Z,98560.22
2023-05-22T05:13:44.597Z,98567.03
2023-05-22T05:15:07.362Z,98567.38
2023-05-22T05:16:27.922Z,98568.97
2023-05-22T05:17:49.270Z,98561.84
2023-05-22T05:19:11.071Z,98566.59
2023-05-22T05:20:32.604Z,98560.47
2023-05-22T05:21:54.125Z,98556.25
2023-05-22T05:23:16.003Z,98568.72
2023-05-22T05:24:37.471Z,98571.78
2023-05-22T05:25:59.368Z,98569.94
2023-05-22T05:27:21.034Z,98570.94
2023-05-22T05:28:43.602Z,98576.81
2023-05-22T05:30:06.568Z,98572.44
2023-05-22T05:31:48.351Z,98576.59
2023-05-22T05:33:26.408Z,98579.47
2023-05-22T05:35:10.747Z,98576.31
2023-05-22T05:36:41.534Z,98583.38
2023-05-22T05:38:03.902Z,98573.25
2023-05-22T05:39:27.171Z,98574.97
2023-05-22T05:40:49.897Z,98573.00
2023-05-22T05:42:11.927Z,98575.47
2023-05-22T05:43:33.716Z,98580.97
2023-05-22T05:45:00.720Z,98569.81
2023-05-22T05:46:06.063Z,98571.25
2023-05-22T05:47:09.075Z,98569.00
2023-05-22T05:48:12.027Z,98569.09
2023-05-22T05:49:20.384Z,98578.06
2023-05-22T05:50:22.893Z,98573.00
2023-05-22T05:51:26.474Z,98572.97
2023-05-22T05:52:32.531Z,98570.31
2023-05-22T05:53:37.618Z,98577.28
2023-05-22T05:54:46.465Z,98565.19
2023-05-22T05:55:51.635Z,98575.63
2023-05-22T05:56:53.820Z,98565.19
2023-05-22T05:57:56.680Z,98569.69
2023-05-22T05:59:09.994Z,98560.88
2023-05-22T06:00:15.095Z,98569.03
2023-05-22T06:01:18.307Z,98560.41
2023-05-22T06:02:39.715Z,98563.84
2023-05-22T06:04:08.122Z,98559.91
2023-05-22T06:05:31.734Z,98565.16
2023-05-22T06:07:22.406Z,98566.00
2023-05-22T06:08:46.964Z,98567.22
2023-05-22T06:10:10.849Z,98557.16
2023-05-22T06:11:38.824Z,98556.34
2023-05-22T06:13:00.895Z,98556.13
2023-05-22T06:14:22.536Z,98557.38
2023-05-22T06:15:45.909Z,98557.41
2023-05-22T06:17:08.922Z,98559.25
2023-05-22T06:18:33.031Z,98553.97
2023-05-22T06:19:35.587Z,98554.16
2023-05-22T06:20:39.511Z,98558.47
2023-05-22T06:21:42.263Z,98561.91
2023-05-22T06:22:45.584Z,98564.75
2023-05-22T06:23:47.921Z,98559.84
2023-05-22T06:24:50.693Z,98559.84
2023-05-22T06:25:56.413Z,98561.28
2023-05-22T06:26:59.738Z,98553.69
2023-05-22T06:28:02.952Z,98557.50
2023-05-22T06:29:05.489Z,98559.25
2023-05-22T06:30:11.069Z,98555.09
2023-05-22T06:31:16.693Z,98557.50
2023-05-22T06:32:21.376Z,98550.44
2023-05-22T06:33:25.203Z,98549.13
2023-05-22T06:34:28.072Z,98555.88
2023-05-22T06:35:32.557Z,98555.59
2023-05-22T06:36:34.780Z,98555.47
2023-05-22T06:37:38.966Z,98554.91
2023-05-22T06:38:41.434Z,98553.88
2023-05-22T06:39:54.630Z,98555.75
2023-05-22T06:41:03.543Z,98555.19
2023-05-22T06:42:06.100Z,98550.13
2023-05-22T06:43:29.297Z,98553.28
2023-05-22T06:44:52.397Z,98552.66
2023-05-22T06:45:55.788Z,98552.06
2023-05-22T06:46:59.986Z,98557.34
2023-05-22T06:48:02.040Z,98551.81
2023-05-22T06:49:06.971Z,98561.69
2023-05-22T06:50:19.366Z,98555.50
2023-05-22T06:51:21.817Z,98555.16
2023-05-22T06:52:27.919Z,98554.84
2023-05-22T06:53:29.931Z,98549.63
2023-05-22T06:54:33.159Z,98555.00
2023-05-22T06:55:36.422Z,98552.81
2023-05-22T06:57:05.222Z,98553.75
2023-05-22T06:58:26.765Z,98550.94
2023-05-22T06:59:48.107Z,98555.72
2023-05-22T07:01:34.968Z,98550.59
2023-05-22T07:03:08.162Z,98553.25
2023-05-22T07:04:38.545Z,98559.41
2023-05-22T07:06:08.077Z,98551.41
2023-05-22T07:07:29.799Z,98551.53
2023-05-22T07:08:51.676Z,98557.91
2023-05-22T07:10:13.382Z,98556.38
2023-05-22T07:11:35.606Z,98547.66
2023-05-22T07:12:57.141Z,98548.47
2023-05-22T07:14:19.563Z,98549.63
2023-05-22T07:15:41.073Z,98550.16
2023-05-22T07:17:01.540Z,98549.91
2023-05-22T07:18:31.338Z,98549.91
2023-05-22T07:19:35.709Z,98542.53
2023-05-22T07:20:40.515Z,98549.03
2023-05-22T07:21:50.025Z,98549.72
2023-05-22T07:22:55.294Z,98550.31
2023-05-22T07:23:57.175Z,98550.22
2023-05-22T07:24:59.990Z,98553.59
2023-05-22T07:26:07.164Z,98551.88
2023-05-22T07:27:13.908Z,98557.13
2023-05-22T07:28:16.292Z,98556.13
2023-05-22T07:29:31.845Z,98557.88
2023-05-22T07:30:36.206Z,98548.44
2023-05-22T07:31:39.069Z,98559.41
2023-05-22T07:32:41.200Z,98544.75
2023-05-22T07:33:46.377Z,98549.53
2023-05-22T07:34:48.707Z,98555.56
2023-05-22T07:35:52.367Z,98561.25
2023-05-22T07:36:55.692Z,98559.59
2023-05-22T07:37:58.506Z,98550.16
2023-05-22T07:39:20.388Z,98559.06
2023-05-22T07:40:41.861Z,98540.13
2023-05-22T07:42:04.826Z,98551.56
2023-05-22T07:43:28.957Z,98548.09
2023-05-22T07:44:51.602Z,98552.91
2023-05-22T07:46:14.674Z,98548.03
2023-05-22T07:47:30.348Z,98548.63
2023-05-22T07:48:33.229Z,98550.59
2023-05-22T07:49:36.448Z,98545.78
2023-05-22T07:50:39.397Z,98546.94
2023-05-22T07:51:42.035Z,98553.00
2023-05-22T07:52:45.819Z,98542.03
2023-05-22T07:53:48.633Z,98545.09
2023-05-22T07:54:50.729Z,98541.25
2023-05-22T07:55:53.739Z,98539.41
2023-05-22T07:56:56.294Z,98546.84
2023-05-22T07:58:00.477Z,98548.34
2023-05-22T07:59:09.279Z,98556.84
2023-05-22T08:00:14.367Z,98552.06
2023-05-22T08:01:16.312Z,98549.78
2023-05-22T08:02:19.192Z,98548.38
2023-05-22T08:03:24.054Z,98553.25
2023-05-22T08:04:27.707Z,98536.13
2023-05-22T08:05:31.119Z,98548.09
2023-05-22T08:06:35.035Z,98549.72
2023-05-22T08:07:38.254Z,98557.75
2023-05-22T08:08:40.106Z,98549.84
2023-05-22T08:09:46.050Z,98550.34
2023-05-22T08:11:02.929Z,98546.97
2023-05-22T08:12:07.975Z,98548.44
2023-05-22T08:13:10.481Z,98552.84
2023-05-22T08:14:13.373Z,98554.31
2023-05-22T08:15:16.201Z,98548.44
2023-05-22T08:16:19.160Z,98548.97
2023-05-22T08:17:21.133Z,98539.56
2023-05-22T08:18:27.913Z,98542.59
2023-05-22T08:19:30.729Z,98545.53
2023-05-22T08:20:34.032Z,98543.75
2023-05-22T08:21:37.540Z,98541.63
2023-05-22T08:22:39.876Z,98546.00
2023-05-22T08:23:42.716Z,98541.72
2023-05-22T08:24:45.840Z,98534.56
2023-05-22T08:25:50.061Z,98540.72
2023-05-22T08:26:52.940Z,98549.03
2023-05-22T08:27:55.714Z,98537.16
2023-05-22T08:28:57.550Z,98541.78
2023-05-22T08:30:00.381Z,98538.13
2023-05-22T08:31:03.226Z,98538.34
2023-05-22T08:32:05.703Z,98533.91
2023-05-22T08:33:08.705Z,98541.06
2023-05-22T08:34:11.139Z,98538.22
2023-05-22T08:35:14.389Z,98533.81
2023-05-22T08:36:18.554Z,98543.19
2023-05-22T08:37:21.496Z,98545.25
2023-05-22T08:38:23.345Z,98537.28
2023-05-22T08:39:26.276Z,98527.50
2023-05-22T08:40:34.697Z,98537.81
2023-05-22T08:41:37.662Z,98532.84
2023-05-22T08:42:40.578Z,98538.22
2023-05-22T08:43:43.611Z,98539.78
2023-05-22T08:44:45.734Z,98541.75
2023-05-22T08:45:50.386Z,98526.84
2023-05-22T08:47:13.878Z,98540.94
2023-05-22T08:48:35.663Z,98534.09
2023-05-22T08:49:59.051Z,98531.22
2023-05-22T08:51:03.610Z,98541.31
2023-05-22T08:52:12.917Z,98534.06
2023-05-22T08:53:15.779Z,98527.41
2023-05-22T08:54:20.179Z,98534.41
2023-05-22T08:55:22.244Z,98533.72
2023-05-22T08:56:29.372Z,98530.84
2023-05-22T08:57:32.894Z,98522.28
2023-05-22T08:58:35.832Z,98528.97
2023-05-22T08:59:40.891Z,98530.53
2023-05-22T09:00:43.154Z,98523.97
2023-05-22T09:01:46.739Z,98530.91
2023-05-22T09:02:50.743Z,98530.66
2023-05-22T09:03:53.683Z,98531.72
2023-05-22T09:04:57.275Z,98530.53
2023-05-22T09:06:00.476Z,98527.19
2023-05-22T09:07:05.961Z,98527.81
2023-05-22T09:08:19.878Z,98541.44
2023-05-22T09:09:24.012Z,98528.47
2023-05-22T09:10:26.812Z,98527.59
2023-05-22T09:11:29.677Z,98526.69
2023-05-22T09:12:33.228Z,98524.25
2023-05-22T09:13:35.021Z,98526.63
2023-05-22T09:14:41.242Z,98524.00
2023-05-22T09:15:44.503Z,98522.84
2023-05-22T09:16:47.437Z,98526.41
2023-05-22T09:17:50.390Z,98524.59
2023-05-22T09:18:53.254Z,98524.91
2023-05-22T09:19:56.398Z,98516.38
2023-05-22T09:20:59.047Z,98526.94
2023-05-22T09:22:05.451Z,98527.19
2023-05-22T09:23:17.584Z,98527.94
2023-05-22T09:24:20.651Z,98521.31
2023-05-22T09:25:22.713Z,98523.16
2023-05-22T09:26:28.574Z,98517.84
2023-05-22T09:27:30.516Z,98535.50
2023-05-22T09:28:34.825Z,98520.19
2023-05-22T09:29:49.436Z,98534.91
2023-05-22T09:30:52.910Z,98531.16
2023-05-22T09:31:55.968Z,98520.97
2023-05-22T09:33:17.485Z,98526.09
2023-05-22T09:34:20.339Z,98518.91
2023-05-22T09:35:23.344Z,98523.78
2023-05-22T09:36:32.337Z,98516.09
2023-05-22T09:37:35.037Z,98523.84
2023-05-22T09:38:40.278Z,98523.44
2023-05-22T09:39:45.068Z,98510.59
2023-05-22T09:40:47.939Z,98509.97
2023-05-22T09:41:51.117Z,98515.03
2023-05-22T09:42:54.326Z,98515.72
2023-05-22T09:43:56.582Z,98505.28
2023-05-22T09:45:04.082Z,98503.22
2023-05-22T09:46:07.175Z,98521.91
2023-05-22T09:47:09.933Z,98518.84
2023-05-22T09:48:13.462Z,98520.09
2023-05-22T09:49:17.036Z,98508.91
2023-05-22T09:50:19.764Z,98507.91
2023-05-22T09:51:23.876Z,98508.66
2023-05-22T09:52:28.266Z,98511.97
2023-05-22T09:53:33.999Z,98492.97
2023-05-22T09:54:44.040Z,98506.88
2023-05-22T09:55:48.341Z,98509.66
2023-05-22T09:56:51.915Z,98510.25
2023-05-22T09:57:55.396Z,98506.06
2023-05-22T09:58:59.129Z,98504.94
2023-05-22T10:00:09.752Z,98509.94
2023-05-22T10:01:16.407Z,98510.88
2023-05-22T10:02:18.417Z,98505.91
2023-05-22T10:03:24.223Z,98501.84
2023-05-22T10:04:28.366Z,98500.41
2023-05-22T10:05:32.446Z,98501.06
2023-05-22T10:06:34.770Z,98506.78
2023-05-22T10:07:57.743Z,98509.75
2023-05-22T10:09:19.309Z,98507.44
2023-05-22T10:10:25.346Z,98491.31
2023-05-22T10:11:30.724Z,98510.59
2023-05-22T10:12:33.703Z,98498.09
2023-05-22T10:13:36.730Z,98503.34
2023-05-22T10:14:38.574Z,98503.28
2023-05-22T10:15:41.486Z,98510.53
2023-05-22T10:16:44.958Z,98499.78
2023-05-22T10:17:48.635Z,98498.22
2023-05-22T10:18:50.800Z,98501.72
2023-05-22T10:19:55.864Z,98502.72
2023-05-22T10:20:59.004Z,98496.22
2023-05-22T10:22:01.764Z,98499.44
2023-05-22T10:23:04.889Z,98501.75
2023-05-22T10:24:08.120Z,98497.78
2023-05-22T10:25:10.892Z,98500.59
2023-05-22T10:26:15.222Z,98495.72
2023-05-22T10:27:17.010Z,98496.19
2023-05-22T10:28:23.650Z,98490.75
2023-05-22T10:29:30.531Z,98492.44
2023-05-22T10:30:36.209Z,98492.16
2023-05-22T10:32:02.963Z,98495.88
2023-05-22T10:33:18.603Z,98491.22
2023-05-22T10:34:24.592Z,98488.09
2023-05-22T10:35:37.214Z,98489.81
2023-05-22T10:36:48.500Z,98481.59
2023-05-22T10:37:53.434Z,98494.59
2023-05-22T10:39:07.737Z,98498.72
2023-05-22T10:40:11.870Z,98499.88
2023-05-22T10:41:16.134Z,98489.16
2023-05-22T10:42:18.962Z,98491.13
2023-05-22T10:43:23.141Z,98494.13
2023-05-22T10:44:25.012Z,98491.09
2023-05-22T10:45:29.278Z,98498.84
2023-05-22T10:46:33.178Z,98493.44
2023-05-22T10:47:36.169Z,98499.34
2023-05-22T10:48:39.746Z,98492.03
2023-05-22T10:49:44.985Z,98494.16
2023-05-22T10:50:52.795Z,98488.50
2023-05-22T10:51:58.800Z,98487.84
2023-05-22T10:53:20.929Z,98495.13
2023-05-22T10:54:40.034Z,98489.78
2023-05-22T10:55:48.180Z,98468.06
2023-05-22T10:56:52.306Z,98490.56
2023-05-22T10:57:55.512Z,98486.13
2023-05-22T10:58:59.215Z,98498.34
2023-05-22T11:00:10.973Z,98479.28
2023-05-22T11:01:15.243Z,98479.03
2023-05-22T11:02:36.092Z,98474.66
2023-05-22T11:03:51.887Z,98468.47
2023-05-22T11:04:54.776Z,98472.13
2023-05-22T11:05:56.631Z,98482.03
2023-05-22T11:07:07.618Z,98469.22
2023-05-22T11:08:29.894Z,98466.38
2023-05-22T11:09:33.626Z,98472.97
2023-05-22T11:10:53.520Z,98467.00
2023-05-22T11:12:17.926Z,98465.31
2023-05-22T11:13:20.875Z,98472.88
2023-05-22T11:14:25.806Z,98465.31
2023-05-22T11:15:32.186Z,98462.38
2023-05-22T11:16:34.391Z,98468.44
2023-05-22T11:17:42.543Z,98461.47
2023-05-22T11:18:45.288Z,98469.97
2023-05-22T11:20:04.953Z,98461.78
2023-05-22T11:21:11.168Z,98460.31
2023-05-22T11:22:15.113Z,98466.44
2023-05-22T11:23:18.381Z,98460.81
2023-05-22T11:24:21.284Z,98467.41
2023-05-22T11:25:25.124Z,98460.59
2023-05-22T11:26:28.695Z,98458.00
2023-05-22T11:27:31.870Z,98459.81
2023-05-22T11:28:34.759Z,98452.50
2023-05-22T11:29:38.395Z,98458.16
2023-05-22T11:30:42.203Z,98455.53
2023-05-22T11:31:47.647Z,98461.72
2023-05-22T11:32:49.578Z,98452.63
2023-05-22T11:33:52.468Z,98451.50
2023-05-22T11:34:56.086Z,98454.66
2023-05-22T11:35:58.987Z,98450.78
2023-05-22T11:37:02.009Z,98454.22
2023-05-22T11:38:05.924Z,98450.78
2023-05-22T11:39:09.488Z,98455.03
2023-05-22T11:40:16.379Z,98458.63
2023-05-22T11:41:19.269Z,98462.81
2023-05-22T11:42:21.098Z,98465.16
2023-05-22T11:43:33.150Z,98462.03
2023-05-22T11:44:35.095Z,98457.53
2023-05-22T11:45:38.199Z,98460.53
2023-05-22T11:46:41.432Z,98452.50
2023-05-22T11:48:03.032Z,98464.78
2023-05-22T11:49:25.278Z,98457.84
2023-05-22T11:50:41.152Z,98463.22
2023-05-22T11:51:44.129Z,98461.03
2023-05-22T11:52:46.939Z,98462.41
2023-05-22T11:53:48.786Z,98463.00
2023-05-22T11:54:53.076Z,98463.28
2023-05-22T11:55:54.932Z,98465.75
2023-05-22T11:56:57.796Z,98460.91
2023-05-22T11:58:02.050Z,98450.91
2023-05-22T11:59:18.684Z,98455.50
2023-05-22T12:00:21.177Z,98450.13
2023-05-22T12:01:24.142Z,98463.06
2023-05-22T12:02:26.078Z,98449.31
2023-05-22T12:03:29.434Z,98451.47
2023-05-22T12:04:34.029Z,98448.47
2023-05-22T12:05:36.115Z,98445.19
2023-05-22T12:06:39.019Z,98442.75
2023-05-22T12:07:41.107Z,98457.28
2023-05-22T12:08:43.962Z,98461.00
2023-05-22T12:09:46.737Z,98453.72
2023-05-22T12:10:50.239Z,98460.94
2023-05-22T12:11:56.101Z,98456.81
2023-05-22T12:12:57.970Z,98455.25
2023-05-22T12:14:04.461Z,98458.25
2023-05-22T12:15:09.771Z,98461.75
2023-05-22T12:16:21.635Z,98462.19
2023-05-22T12:17:24.651Z,98462.09
2023-05-22T12:18:27.715Z,98458.06
2023-05-22T12:19:29.735Z,98455.91
2023-05-22T12:20:32.530Z,98458.59
2023-05-22T12:21:36.577Z,98453.28
2023-05-22T12:22:42.025Z,98451.66
2023-05-22T12:23:53.863Z,98458.38
2023-05-22T12:24:56.639Z,98445.97
2023-05-22T12:25:59.441Z,98454.59
2023-05-22T12:27:02.236Z,98454.06
2023-05-22T12:28:06.830Z,98456.25
2023-05-22T12:29:09.882Z,98453.66
2023-05-22T12:30:15.126Z,98455.84
2023-05-22T12:31:22.242Z,98449.94
2023-05-22T12:32:25.734Z,98447.28
2023-05-22T12:33:29.502Z,98443.53
2023-05-22T12:34:33.402Z,98444.66
2023-05-22T12:35:36.239Z,98431.75
2023-05-22T12:36:40.792Z,98426.13
2023-05-22T12:37:48.890Z,98432.84
2023-05-22T12:38:51.804Z,98421.78
2023-05-22T12:39:55.589Z,98417.47
2023-05-22T12:41:00.172Z,98418.81
2023-05-22T12:42:02.976Z,98424.97
2023-05-22T12:43:06.006Z,98416.84
2023-05-22T12:44:09.132Z,98431.88
2023-05-22T12:45:13.361Z,98420.75
2023-05-22T12:46:16.182Z,98422.09
2023-05-22T12:47:18.149Z,98418.59
2023-05-22T12:48:21.047Z,98422.91
2023-05-22T12:49:23.844Z,98424.25
2023-05-22T12:50:25.690Z,98418.06
2023-05-22T12:51:31.221Z,98412.19
2023-05-22T12:52:33.065Z,98408.09
2023-05-22T12:53:35.888Z,98417.75
2023-05-22T12:54:37.737Z,98418.00
2023-05-22T12:55:59.077Z,98412.56
2023-05-22T12:57:20.656Z,98410.31
2023-05-22T12:58:44.762Z,98412.84
2023-05-22T13:00:07.857Z,98412.91
2023-05-22T13:01:30.553Z,98408.63
2023-05-22T13:02:39.241Z,98411.41
2023-05-22T13:03:42.197Z,98406.97
2023-05-22T13:04:44.069Z,98407.44
2023-05-22T13:05:47.020Z,98412.22
2023-05-22T13:06:48.858Z,98409.34
2023-05-22T13:07:51.680Z,98412.38
2023-05-22T13:08:54.666Z,98409.44
2023-05-22T13:09:56.582Z,98404.09
2023-05-22T13:10:59.508Z,98410.28
2023-05-22T13:12:01.374Z,98408.19
2023-05-22T13:13:04.410Z,98412.38
2023-05-22T13:14:07.172Z,98406.84
2023-05-22T13:15:11.568Z,98406.19
2023-05-22T13:16:14.431Z,98404.13
2023-05-22T13:17:17.661Z,98400.47
2023-05-22T13:18:20.564Z,98403.81
2023-05-22T13:19:22.388Z,98400.13
2023-05-22T13:20:25.188Z,98401.59
2023-05-22T13:21:27.071Z,98397.44
2023-05-22T13:22:29.901Z,98406.91
2023-05-22T13:23:32.785Z,98399.47
2023-05-22T13:24:34.665Z,98400.19
2023-05-22T13:25:37.593Z,98394.50
2023-05-22T13:26:40.450Z,98394.16
2023-05-22T13:27:43.212Z,98396.72
2023-05-22T13:28:45.246Z,98392.69
2023-05-22T13:29:48.217Z,98393.31
2023-05-22T13:30:50.068Z,98382.31
2023-05-22T13:31:52.954Z,98392.03
2023-05-22T13:32:57.655Z,98391.41
2023-05-22T13:34:02.938Z,98391.88
2023-05-22T13:35:06.873Z,98388.03
2023-05-22T13:36:08.720Z,98388.41